createdAt,value
2018-09-06T00:02:05.872Z,7.67
2018-09-06T00:04:35.577Z,10.77
2018-09-06T00:07:05.240Z,8.33
2018-09-06T00:09:34.902Z,8.67
2018-09-06T00:12:04.607Z,7.73
2018-09-06T00:14:34.261Z,8.03
2018-09-06T00:17:03.973Z,11.60
2018-09-06T00:19:33.681Z,9.60
2018-09-06T00:22:03.401Z,7.10
2018-09-06T00:24:33.062Z,7.70
2018-09-06T00:27:02.740Z,10.00
2018-09-06T00:29:32.453Z,7.87
2018-09-06T00:32:02.132Z,10.90
2018-09-06T00:34:31.781Z,6.73
2018-09-06T00:37:01.498Z,7.80
2018-09-06T00:39:31.161Z,11.43
2018-09-06T00:42:00.861Z,11.00
2018-09-06T00:44:30.572Z,8.87
2018-09-06T00:47:00.236Z,8.73
2018-09-06T00:49:29.935Z,7.93
2018-09-06T00:51:59.647Z,11.27
2018-09-06T00:54:29.512Z,11.47
2018-09-06T00:56:59.300Z,9.20
2018-09-06T00:59:28.942Z,7.83
2018-09-06T01:01:58.619Z,10.50
2018-09-06T01:04:28.288Z,7.47
2018-09-06T01:06:57.920Z,11.33
2018-09-06T01:09:27.604Z,10.73
2018-09-06T01:11:57.253Z,8.13
2018-09-06T01:14:26.936Z,10.27
2018-09-06T01:16:56.596Z,9.50
2018-09-06T01:19:26.304Z,11.60
2018-09-06T01:21:55.968Z,7.90
2018-09-06T01:24:25.624Z,8.30
2018-09-06T01:26:55.318Z,8.80
2018-09-06T01:29:24.976Z,7.73
2018-09-06T01:31:54.688Z,7.77
2018-09-06T01:34:24.342Z,11.30
2018-09-06T01:36:54.085Z,10.30
2018-09-06T01:39:23.738Z,10.37
2018-09-06T01:41:53.469Z,12.07
2018-09-06T01:44:23.344Z,8.10
2018-09-06T01:46:53.008Z,10.60
2018-09-06T01:49:22.656Z,12.47
2018-09-06T01:51:52.376Z,9.93
2018-09-06T01:54:22.020Z,10.90
2018-09-06T01:56:51.697Z,8.80
2018-09-06T01:59:21.452Z,11.33
2018-09-06T02:01:51.084Z,9.17
2018-09-06T02:04:20.873Z,10.77
2018-09-06T02:06:50.605Z,11.33
2018-09-06T02:09:20.260Z,10.07
2018-09-06T02:11:49.996Z,12.63
2018-09-06T02:14:19.741Z,11.80
2018-09-06T02:16:49.558Z,11.90
2018-09-06T02:19:19.300Z,12.90
2018-09-06T02:21:49.057Z,11.07
2018-09-06T02:24:18.771Z,11.10
2018-09-06T02:26:48.784Z,13.43
2018-09-06T02:29:18.436Z,9.20
2018-09-06T02:31:48.120Z,11.80
2018-09-06T02:34:17.756Z,10.60
2018-09-06T02:36:47.456Z,10.40
2018-09-06T02:39:17.109Z,13.20
2018-09-06T02:41:46.912Z,17.90
2018-09-06T02:44:16.557Z,8.73
2018-09-06T02:46:46.325Z,11.60
2018-09-06T02:49:16.092Z,11.00
2018-09-06T02:51:45.735Z,9.73
2018-09-06T02:54:15.442Z,10.30
2018-09-06T02:56:45.110Z,14.77
2018-09-06T02:59:14.792Z,9.13
2018-09-06T03:01:44.436Z,13.07
2018-09-06T03:04:14.136Z,9.00
2018-09-06T03:06:43.796Z,10.70
2018-09-06T03:09:13.467Z,15.07
2018-09-06T03:11:48.423Z,12.03
2018-09-06T03:14:18.160Z,8.60
2018-09-06T03:16:47.852Z,11.43
2018-09-06T03:19:17.572Z,11.03
2018-09-06T03:21:47.295Z,14.37
2018-09-06T03:24:17.201Z,8.73
2018-09-06T03:26:46.883Z,12.37
2018-09-06T03:29:16.532Z,12.80
2018-09-06T03:31:46.224Z,11.90
2018-09-06T03:34:15.984Z,10.23
2018-09-06T03:36:45.729Z,10.50
2018-09-06T03:39:15.418Z,11.73
2018-09-06T03:41:45.112Z,14.93
2018-09-06T03:44:14.776Z,13.80
2018-09-06T03:46:44.539Z,12.60
2018-09-06T03:49:14.260Z,12.07
2018-09-06T03:51:43.916Z,13.40
2018-09-06T03:54:13.585Z,11.80
2018-09-06T03:56:43.261Z,11.80
2018-09-06T03:59:13.017Z,9.93
2018-09-06T04:01:42.677Z,11.87
2018-09-06T04:04:12.321Z,10.67
2018-09-06T04:06:42.004Z,11.83
2018-09-06T04:09:12.128Z,13.53
2018-09-06T04:11:42.688Z,12.97
2018-09-06T04:14:12.351Z,18.30
2018-09-06T04:16:42.049Z,9.83
2018-09-06T04:19:11.719Z,20.90
2018-09-06T04:21:41.520Z,12.83
2018-09-06T04:24:11.254Z,15.27
2018-09-06T04:26:40.923Z,11.67
2018-09-06T04:29:10.588Z,11.83
2018-09-06T04:31:40.284Z,11.63
2018-09-06T04:34:09.977Z,10.57
2018-09-06T04:36:39.714Z,13.90
2018-09-06T04:39:11.199Z,12.53
2018-09-06T04:41:40.872Z,12.23
2018-09-06T04:44:10.645Z,13.00
2018-09-06T04:46:40.395Z,11.23
2018-09-06T04:49:10.057Z,14.07
2018-09-06T04:51:39.733Z,14.13
2018-09-06T04:54:09.429Z,12.77
2018-09-06T04:56:39.122Z,14.93
2018-09-06T04:59:08.808Z,12.47
2018-09-06T05:01:38.596Z,13.20
2018-09-06T05:04:08.555Z,14.23
2018-09-06T05:06:38.288Z,14.90
2018-09-06T05:09:09.867Z,15.67
2018-09-06T05:11:40.698Z,13.40
2018-09-06T05:14:10.550Z,16.63
2018-09-06T05:16:40.260Z,17.67
2018-09-06T05:19:09.924Z,18.67
2018-09-06T05:21:39.600Z,17.37
2018-09-06T05:24:09.487Z,16.23
2018-09-06T05:26:39.175Z,15.70
2018-09-06T05:29:08.893Z,16.23
2018-09-06T05:31:38.592Z,12.87
2018-09-06T05:34:08.300Z,12.90
2018-09-06T05:36:38.003Z,16.67
2018-09-06T05:39:10.906Z,20.50
2018-09-06T05:41:41.170Z,15.80
2018-09-06T05:44:11.538Z,15.57
2018-09-06T05:46:41.797Z,16.53
2018-09-06T05:49:11.518Z,13.23
2018-09-06T05:51:41.183Z,13.87
2018-09-06T05:54:10.891Z,15.33
2018-09-06T05:56:40.636Z,18.47
2018-09-06T05:59:10.307Z,14.17
2018-09-06T06:01:40.005Z,18.73
2018-09-06T06:04:09.680Z,16.33
2018-09-06T06:06:39.380Z,15.27
2018-09-06T06:09:09.687Z,18.70
2018-09-06T06:11:39.443Z,15.93
2018-09-06T06:14:09.158Z,15.83
2018-09-06T06:16:38.901Z,17.37
2018-09-06T06:19:08.580Z,14.23
2018-09-06T06:21:38.323Z,17.40
2018-09-06T06:24:08.031Z,14.87
2018-09-06T06:26:37.699Z,20.30
2018-09-06T06:29:07.760Z,17.73
2018-09-06T06:31:37.420Z,16.53
2018-09-06T06:34:07.282Z,19.77
2018-09-06T06:36:36.934Z,14.67
2018-09-06T06:39:09.486Z,14.50
2018-09-06T06:41:39.847Z,13.93
2018-09-06T06:44:09.846Z,17.13
2018-09-06T06:46:39.559Z,16.63
2018-09-06T06:49:09.230Z,16.27
2018-09-06T06:51:38.941Z,15.80
2018-09-06T06:54:08.694Z,13.83
2018-09-06T06:56:38.436Z,17.10
2018-09-06T06:59:08.132Z,13.67
2018-09-06T07:01:37.808Z,13.33
2018-09-06T07:04:07.581Z,13.33
2018-09-06T07:06:37.245Z,14.93
2018-09-06T07:09:09.356Z,12.70
2018-09-06T07:11:39.040Z,12.17
2018-09-06T07:14:08.708Z,9.67
2018-09-06T07:16:38.400Z,14.60
2018-09-06T07:19:08.067Z,11.53
2018-09-06T07:21:37.819Z,14.70
2018-09-06T07:24:07.501Z,16.60
2018-09-06T07:26:37.228Z,17.50
2018-09-06T07:29:07.012Z,12.70
2018-09-06T07:31:36.718Z,13.77
2018-09-06T07:34:06.471Z,12.00
2018-09-06T07:36:36.165Z,11.63
2018-09-06T07:39:08.540Z,11.17
2018-09-06T07:41:38.200Z,12.73
2018-09-06T07:44:07.996Z,10.97
2018-09-06T07:46:37.699Z,13.73
2018-09-06T07:49:07.443Z,10.10
2018-09-06T07:51:37.136Z,8.57
2018-09-06T07:54:06.816Z,13.83
2018-09-06T07:56:36.528Z,8.97
2018-09-06T07:59:06.248Z,11.20
2018-09-06T08:01:35.934Z,14.00
2018-09-06T08:04:05.753Z,12.43
2018-09-06T08:06:35.432Z,8.00
2018-09-06T08:09:07.168Z,11.40
2018-09-06T08:11:37.049Z,10.70
2018-09-06T08:14:06.764Z,9.00
2018-09-06T08:16:36.789Z,9.47
2018-09-06T08:19:06.468Z,9.73
2018-09-06T08:21:36.173Z,9.83
2018-09-06T08:24:05.855Z,8.50
2018-09-06T08:26:35.564Z,8.53
2018-09-06T08:29:05.268Z,10.50
2018-09-06T08:31:35.071Z,8.27
2018-09-06T08:34:04.763Z,8.17
2018-09-06T08:36:34.470Z,13.13
2018-09-06T08:39:05.438Z,9.10
2018-09-06T08:41:35.117Z,12.13
2018-09-06T08:44:04.768Z,9.80
2018-09-06T08:46:34.531Z,11.47
2018-09-06T08:49:04.232Z,9.90
2018-09-06T08:51:34.133Z,12.97
2018-09-06T08:54:03.832Z,9.73
2018-09-06T08:56:33.541Z,11.93
2018-09-06T08:59:03.297Z,7.97
2018-09-06T09:01:39.920Z,13.07
2018-09-06T09:04:10.041Z,10.47
2018-09-06T09:06:40.092Z,10.83
2018-09-06T09:09:13.144Z,10.23
2018-09-06T09:11:42.905Z,10.47
2018-09-06T09:14:12.610Z,9.83
2018-09-06T09:16:42.484Z,10.00
2018-09-06T09:19:12.145Z,11.20
2018-09-06T09:21:41.928Z,8.90
2018-09-06T09:24:11.503Z,8.25
2018-09-06T09:26:41.257Z,10.68
2018-09-06T09:29:10.948Z,10.58
2018-09-06T09:31:40.668Z,14.55
2018-09-06T09:34:10.387Z,9.00
2018-09-06T09:36:40.072Z,9.38
2018-09-06T09:39:10.518Z,11.10
2018-09-06T09:41:40.256Z,11.05
2018-09-06T09:44:09.964Z,11.68
2018-09-06T09:49:08.401Z,12.78
2018-09-06T09:51:38.180Z,8.08
2018-09-06T09:54:08.063Z,11.18
2018-09-06T09:56:37.745Z,10.08
2018-09-06T09:59:07.488Z,11.90
2018-09-06T10:01:43.860Z,9.15
2018-09-06T10:04:18.649Z,8.38
2018-09-06T10:06:53.424Z,8.88
2018-09-06T10:09:24.964Z,11.10
2018-09-06T10:11:54.688Z,8.25
2018-09-06T10:14:24.407Z,10.00
2018-09-06T10:16:54.075Z,11.08
2018-09-06T10:19:23.852Z,9.13
2018-09-06T10:21:53.516Z,8.85
2018-09-06T10:24:23.239Z,11.33
2018-09-06T10:26:53.069Z,10.45
2018-09-06T10:29:22.782Z,11.40
2018-09-06T10:31:52.488Z,9.68
2018-09-06T10:34:22.250Z,8.35
2018-09-06T10:36:51.992Z,11.63
2018-09-06T10:39:21.854Z,9.78
2018-09-06T10:41:51.502Z,8.23
2018-09-06T10:44:21.208Z,8.55
2018-09-06T10:46:50.872Z,9.13
2018-09-06T10:49:20.573Z,10.05
2018-09-06T10:51:50.256Z,10.18
2018-09-06T10:54:19.945Z,9.68
2018-09-06T10:56:49.620Z,7.95
2018-09-06T10:59:19.360Z,8.78
2018-09-06T11:01:49.088Z,8.18
2018-09-06T11:04:18.901Z,9.55
2018-09-06T11:06:48.636Z,10.10
2018-09-06T11:09:18.408Z,11.48
2018-09-06T11:11:48.093Z,9.15
2018-09-06T11:14:17.768Z,7.72
2018-09-06T11:16:47.508Z,10.15
2018-09-06T11:19:17.260Z,8.00
2018-09-06T11:21:47.100Z,7.70
2018-09-06T11:24:16.625Z,9.45
2018-09-06T11:26:46.272Z,11.50
2018-09-06T11:29:15.941Z,10.35
2018-09-06T11:31:45.625Z,13.15
2018-09-06T11:34:15.384Z,8.95
2018-09-06T11:36:45.052Z,8.53
2018-09-06T11:39:14.800Z,8.98
2018-09-06T11:41:44.560Z,10.20
2018-09-06T11:44:14.332Z,11.63
2018-09-06T11:46:44.073Z,8.50
2018-09-06T11:49:13.773Z,12.68
2018-09-06T11:51:43.533Z,10.15
2018-09-06T11:54:13.228Z,8.58
2018-09-06T11:56:42.904Z,7.67
2018-09-06T11:59:12.652Z,9.38
2018-09-06T12:01:42.376Z,12.40
2018-09-06T12:04:12.192Z,6.92
2018-09-06T12:06:41.904Z,8.90
2018-09-06T12:09:11.661Z,9.38
2018-09-06T12:11:41.346Z,6.90
2018-09-06T12:14:11.064Z,9.53
2018-09-06T12:16:40.716Z,7.45
2018-09-06T12:19:10.434Z,7.08
2018-09-06T12:21:40.097Z,8.20
2018-09-06T12:24:09.790Z,8.40
2018-09-06T12:26:39.456Z,10.58
2018-09-06T12:29:09.192Z,9.38
2018-09-06T12:31:38.824Z,8.13
2018-09-06T12:34:08.613Z,10.48
2018-09-06T12:36:38.265Z,7.83
2018-09-06T12:39:09.273Z,14.35
2018-09-06T12:41:39.575Z,6.28
2018-09-06T12:44:09.603Z,9.28
2018-09-06T12:46:39.288Z,13.38
2018-09-06T12:49:08.988Z,10.48
2018-09-06T12:51:38.720Z,9.65
2018-09-06T12:54:08.474Z,9.30
2018-09-06T12:56:38.292Z,6.55
2018-09-06T12:59:08.003Z,9.75
2018-09-06T13:01:37.656Z,10.08
2018-09-06T13:04:07.444Z,9.13
2018-09-06T13:06:37.093Z,11.53
2018-09-06T13:09:07.420Z,16.87
2018-09-06T13:11:37.544Z,7.83
2018-09-06T13:14:07.256Z,9.08
2018-09-06T13:16:36.913Z,9.18
2018-09-06T13:19:06.636Z,10.40
2018-09-06T13:21:36.388Z,8.60
2018-09-06T13:24:06.080Z,9.15
2018-09-06T13:26:35.761Z,11.25
2018-09-06T13:29:05.536Z,10.93
2018-09-06T13:31:35.276Z,7.83
2018-09-06T13:34:05.028Z,9.65
2018-09-06T13:36:34.676Z,8.98
2018-09-06T13:39:06.267Z,8.15
2018-09-06T13:41:35.963Z,10.72
2018-09-06T13:44:05.677Z,7.62
2018-09-06T13:46:35.452Z,8.08
2018-09-06T13:49:05.136Z,10.15
2018-09-06T13:51:34.800Z,7.78
2018-09-06T13:54:04.495Z,8.28
2018-09-06T13:56:34.136Z,8.63
2018-09-06T13:59:03.888Z,9.23
2018-09-06T14:01:33.844Z,13.48
2018-09-06T14:04:03.587Z,8.40
2018-09-06T14:06:33.313Z,7.85
2018-09-06T14:09:03.048Z,7.83
2018-09-06T14:11:32.672Z,10.38
2018-09-06T14:14:02.372Z,10.75
2018-09-06T14:16:32.111Z,9.48
2018-09-06T14:19:01.803Z,8.98
2018-09-06T14:21:31.449Z,9.70
2018-09-06T14:24:01.145Z,10.28
2018-09-06T14:26:30.845Z,12.70
2018-09-06T14:29:00.528Z,13.15
2018-09-06T14:31:30.256Z,11.93
2018-09-06T14:33:59.916Z,9.98
2018-09-06T14:36:29.586Z,11.35
2018-09-06T14:38:59.596Z,8.48
2018-09-06T14:41:29.365Z,10.32
2018-09-06T14:43:59.056Z,9.88
2018-09-06T14:46:28.892Z,10.63
2018-09-06T14:48:58.561Z,11.15
2018-09-06T14:51:28.204Z,8.78
2018-09-06T14:53:57.859Z,8.95
2018-09-06T14:56:27.594Z,9.53
2018-09-06T14:58:57.282Z,10.25
2018-09-06T15:01:27.003Z,11.48
2018-09-06T15:03:56.677Z,10.38
2018-09-06T15:06:26.333Z,12.28
2018-09-06T15:08:56.016Z,11.15
2018-09-06T15:11:25.667Z,13.08
2018-09-06T15:13:55.369Z,12.88
2018-09-06T15:16:25.042Z,12.05
2018-09-06T15:18:54.720Z,12.88
2018-09-06T15:21:24.437Z,17.23
2018-09-06T15:23:54.103Z,12.73
2018-09-06T15:26:23.785Z,16.07
2018-09-06T15:28:53.507Z,13.38
2018-09-06T15:31:23.173Z,14.70
2018-09-06T15:33:52.868Z,17.17
2018-09-06T15:36:22.531Z,12.53
2018-09-06T15:38:52.366Z,14.35
2018-09-06T15:41:22.140Z,13.35
2018-09-06T15:43:51.888Z,12.65
2018-09-06T15:46:21.668Z,14.87
2018-09-06T15:48:51.388Z,18.37
2018-09-06T15:51:21.350Z,15.60
2018-09-06T15:53:51.028Z,15.18
2018-09-06T15:56:20.696Z,17.07
2018-09-06T15:58:50.377Z,15.70
2018-09-06T16:01:20.025Z,12.10
2018-09-06T16:03:49.727Z,13.48
2018-09-06T16:06:19.473Z,17.07
2018-09-06T16:08:49.156Z,18.62
2018-09-06T16:11:18.904Z,17.02
2018-09-06T16:13:48.628Z,15.95
2018-09-06T16:16:18.483Z,15.05
2018-09-06T16:18:48.252Z,18.80
2018-09-06T16:21:17.905Z,17.50
2018-09-06T16:23:47.600Z,24.00
2018-09-06T16:26:17.328Z,18.60
2018-09-06T16:28:47.008Z,20.20
2018-09-06T16:31:16.685Z,18.23
2018-09-06T16:33:46.394Z,18.77
2018-09-06T16:36:16.052Z,15.83
2018-09-06T16:38:45.772Z,15.05
2018-09-06T16:41:15.449Z,16.65
2018-09-06T16:43:45.474Z,15.48
2018-09-06T16:46:15.134Z,20.25
2018-09-06T16:48:44.897Z,14.28
2018-09-06T16:51:14.716Z,16.73
2018-09-06T16:53:44.385Z,20.92
2018-09-06T16:56:14.072Z,14.95
2018-09-06T16:58:43.736Z,18.15
2018-09-06T17:01:13.534Z,20.37
2018-09-06T17:03:43.175Z,17.35
2018-09-06T17:06:12.871Z,18.40
2018-09-06T17:08:42.537Z,19.12
2018-09-06T17:11:12.232Z,18.77
2018-09-06T17:13:41.909Z,28.17
2018-09-06T17:16:11.665Z,28.65
2018-09-06T17:18:41.381Z,17.02
2018-09-06T17:21:11.112Z,16.83
2018-09-06T17:23:41.209Z,10.03
2018-09-06T17:26:11.157Z,12.63
2018-09-06T17:28:40.857Z,12.03
2018-09-06T17:31:10.584Z,8.50
2018-09-06T17:33:40.272Z,12.20
2018-09-06T17:36:09.993Z,9.80
2018-09-06T17:38:39.753Z,8.63
2018-09-06T17:41:09.452Z,6.80
2018-09-06T17:43:39.140Z,7.00
2018-09-06T17:46:08.848Z,7.00
2018-09-06T17:48:38.729Z,8.27
2018-09-06T17:51:08.481Z,7.47
2018-09-06T17:53:38.172Z,7.80
2018-09-06T17:56:07.910Z,5.40
2018-09-06T17:58:37.596Z,6.93
2018-09-06T18:01:20.402Z,7.83
2018-09-06T18:03:50.186Z,6.03
2018-09-06T18:06:19.949Z,4.93
2018-09-06T18:08:49.712Z,5.47
2018-09-06T18:11:19.436Z,7.17
2018-09-06T18:13:49.245Z,6.30
2018-09-06T18:16:18.992Z,7.60
2018-09-06T18:18:48.764Z,11.20
2018-09-06T18:21:18.511Z,11.33
2018-09-06T18:23:48.262Z,11.80
2018-09-06T18:26:18.097Z,13.53
2018-09-06T18:28:47.823Z,18.53
2018-09-06T18:31:17.628Z,17.70
2018-09-06T18:33:47.357Z,17.70
2018-09-06T18:36:17.153Z,15.10
2018-09-06T18:38:47.787Z,14.90
2018-09-06T18:41:17.616Z,12.43
2018-09-06T18:43:47.343Z,14.80
2018-09-06T18:46:17.056Z,16.70
2018-09-06T18:48:46.776Z,18.53
2018-09-06T18:51:16.547Z,18.60
2018-09-06T18:53:46.294Z,20.40
2018-09-06T18:56:16.039Z,20.77
2018-09-06T18:58:45.772Z,19.67
2018-09-06T19:01:15.503Z,21.37
2018-09-06T19:03:45.207Z,18.97
2018-09-06T19:06:14.920Z,18.13
2018-09-06T19:08:44.616Z,19.77
2018-09-06T19:11:14.418Z,23.30
2018-09-06T19:13:44.115Z,21.60
2018-09-06T19:16:13.824Z,24.63
2018-09-06T19:18:43.560Z,23.40
2018-09-06T19:21:13.252Z,24.90
2018-09-06T19:23:42.928Z,28.93
2018-09-06T19:26:12.674Z,32.47
2018-09-06T19:28:42.380Z,31.33
2018-09-06T19:31:12.101Z,32.17
2018-09-06T19:33:41.797Z,31.57
2018-09-06T19:36:11.530Z,28.70
2018-09-06T19:38:41.239Z,29.03
2018-09-06T19:41:10.974Z,23.17
2018-09-06T19:43:40.693Z,27.23
2018-09-06T19:46:10.406Z,25.87
2018-09-06T19:48:40.218Z,26.80
2018-09-06T19:51:10.018Z,27.87
2018-09-06T19:53:39.809Z,34.90
2018-09-06T19:56:09.530Z,30.93
2018-09-06T19:58:39.224Z,26.70
2018-09-06T20:01:08.956Z,24.73
2018-09-06T20:03:38.650Z,22.80
2018-09-06T20:06:08.372Z,20.17
2018-09-06T20:08:38.073Z,19.93
2018-09-06T20:11:07.804Z,19.57
2018-09-06T20:13:37.548Z,19.60
2018-09-06T20:16:07.484Z,19.83
2018-09-06T20:18:37.184Z,18.87
2018-09-06T20:21:06.926Z,17.37
2018-09-06T20:23:36.621Z,17.87
2018-09-06T20:26:06.416Z,19.17
2018-09-06T20:28:36.254Z,23.30
2018-09-06T20:31:06.138Z,24.20
2018-09-06T20:33:35.864Z,18.83
2018-09-06T20:36:05.633Z,19.67
2018-09-06T20:38:35.354Z,20.17
2018-09-06T20:41:05.143Z,22.93
2018-09-06T20:43:34.961Z,21.13
2018-09-06T20:46:04.704Z,19.67
2018-09-06T20:48:34.485Z,22.17
2018-09-06T20:51:04.317Z,20.47
2018-09-06T20:53:34.356Z,19.40
2018-09-06T20:56:04.100Z,20.43
2018-09-06T20:58:33.797Z,23.37
2018-09-06T21:01:03.570Z,21.77
2018-09-06T21:03:33.266Z,20.97
2018-09-06T21:06:03.072Z,21.90
2018-09-06T21:08:32.804Z,19.87
2018-09-06T21:11:02.540Z,20.03
2018-09-06T21:13:32.220Z,19.17
2018-09-06T21:16:01.955Z,22.27
2018-09-06T21:18:31.946Z,24.47
2018-09-06T21:21:01.682Z,21.13
2018-09-06T21:23:31.393Z,22.37
2018-09-06T21:26:01.127Z,21.93
2018-09-06T21:28:30.898Z,23.20
2018-09-06T21:31:00.696Z,22.60
2018-09-06T21:33:30.388Z,24.13
2018-09-06T21:36:00.074Z,23.93
2018-09-06T21:38:29.773Z,21.60
2018-09-06T21:40:59.514Z,22.83
2018-09-06T21:43:29.308Z,25.53
2018-09-06T21:45:59.028Z,24.50
2018-09-06T21:48:28.744Z,26.60
2018-09-06T21:50:58.457Z,25.30
2018-09-06T21:53:28.144Z,27.77
2018-09-06T21:55:57.856Z,24.90
2018-09-06T21:58:27.640Z,31.07
2018-09-06T22:00:57.396Z,31.53
2018-09-06T22:03:32.298Z,33.60
2018-09-06T22:06:02.075Z,33.80
2018-09-06T22:08:31.806Z,33.73
2018-09-06T22:11:01.558Z,32.80
2018-09-06T22:13:31.283Z,29.77
2018-09-06T22:16:01.069Z,30.73
2018-09-06T22:18:30.805Z,41.27
2018-09-06T22:21:00.557Z,40.30
2018-09-06T22:23:30.252Z,32.93
2018-09-06T22:25:59.986Z,28.50
2018-09-06T22:28:29.653Z,31.23
2018-09-06T22:30:59.381Z,31.53
2018-09-06T22:33:29.079Z,30.30
2018-09-06T22:35:58.818Z,37.77
2018-09-06T22:38:28.476Z,40.37
2018-09-06T22:40:58.199Z,35.30
2018-09-06T22:43:27.913Z,29.97
2018-09-06T22:45:57.740Z,30.37
2018-09-06T22:48:27.436Z,25.30
2018-09-06T22:50:57.131Z,31.27
2018-09-06T22:53:26.828Z,34.13
2018-09-06T22:55:56.548Z,32.50
2018-09-06T22:58:26.332Z,30.43
2018-09-06T23:00:56.122Z,31.87
2018-09-06T23:03:30.794Z,31.07
2018-09-06T23:06:00.500Z,37.57
2018-09-06T23:08:30.216Z,35.73
2018-09-06T23:10:59.995Z,40.53
2018-09-06T23:13:29.759Z,35.80
2018-09-06T23:15:59.592Z,27.73
2018-09-06T23:18:29.317Z,33.30
2018-09-06T23:20:59.129Z,30.23
2018-09-06T23:23:28.914Z,28.70
2018-09-06T23:25:58.705Z,32.43
2018-09-06T23:28:28.435Z,28.80
2018-09-06T23:30:58.150Z,29.27
2018-09-06T23:33:27.906Z,31.70
2018-09-06T23:35:57.649Z,33.80
2018-09-06T23:38:27.450Z,33.20
2018-09-06T23:40:57.873Z,36.10
2018-09-06T23:43:28.096Z,36.87
2018-09-06T23:45:58.866Z,33.13
2018-09-06T23:48:29.774Z,36.30
2018-09-06T23:50:59.797Z,31.53
2018-09-06T23:53:29.697Z,27.40
2018-09-06T23:55:59.447Z,29.07
2018-09-06T23:58:29.138Z,28.23
